Login to view products. 
Friday, April 28, 2017 (10:10 UTC)
Abu Dhabi International Airport
Last Updated: 28-Apr-2017 (10:10Z)
Wind Dir/Speed: W at 13 kt
Temperature: 40.6°C
Rel. Humidity: 20 %
Pressure: 1007.3 hPa
Visibility: 10000 m
ACTUALS
  • METAR OMAA 281000Z 29008KT 250V070 CAVOK 42/10 Q1007 NOSIG
  • TAF OMAA 280500Z 2806/2912 16007KT 8000 NSC BECMG 2807/2809 32012KT BECMG 2817/2819 04005KT BECMG 2902/2904 17012KT BECMG 2910/2912 33011KT=